sensor_id;sensor_type;location;lat;lon;timestamp;temperature;humidity
13115;DHT22;6623;52.120;8.660;2023-05-17T00:02:22;20.60;51.10
13115;DHT22;6623;52.120;8.660;2023-05-17T00:04:47;20.60;51.20
13115;DHT22;6623;52.120;8.660;2023-05-17T00:07:13;20.60;51.20
13115;DHT22;6623;52.120;8.660;2023-05-17T00:09:38;20.60;51.10
13115;DHT22;6623;52.120;8.660;2023-05-17T00:12:04;20.60;51.10
13115;DHT22;6623;52.120;8.660;2023-05-17T00:14:30;20.60;51.10
13115;DHT22;6623;52.120;8.660;2023-05-17T00:16:55;20.60;51.20
13115;DHT22;6623;52.120;8.660;2023-05-17T00:19:21;20.60;51.20
13115;DHT22;6623;52.120;8.660;2023-05-17T00:21:46;20.60;51.10
13115;DHT22;6623;52.120;8.660;2023-05-17T00:24:12;20.60;51.10
13115;DHT22;6623;52.120;8.660;2023-05-17T00:26:37;20.60;51.10
13115;DHT22;6623;52.120;8.660;2023-05-17T00:29:03;20.60;51.10
13115;DHT22;6623;52.120;8.660;2023-05-17T00:31:28;20.60;51.20
13115;DHT22;6623;52.120;8.660;2023-05-17T00:33:54;20.60;51.10
13115;DHT22;6623;52.120;8.660;2023-05-17T00:36:19;20.60;51.10
13115;DHT22;6623;52.120;8.660;2023-05-17T00:38:45;20.60;51.10
13115;DHT22;6623;52.120;8.660;2023-05-17T00:41:10;20.60;51.10
13115;DHT22;6623;52.120;8.660;2023-05-17T00:43:37;20.60;51.10
13115;DHT22;6623;52.120;8.660;2023-05-17T00:46:03;20.60;51.10
13115;DHT22;6623;52.120;8.660;2023-05-17T00:48:29;20.60;51.10
13115;DHT22;6623;52.120;8.660;2023-05-17T00:50:55;20.70;51.10
13115;DHT22;6623;52.120;8.660;2023-05-17T00:53:21;20.60;51.10
13115;DHT22;6623;52.120;8.660;2023-05-17T00:55:47;20.60;51.00
13115;DHT22;6623;52.120;8.660;2023-05-17T00:58:13;20.60;51.00
13115;DHT22;6623;52.120;8.660;2023-05-17T01:00:39;20.60;51.10
13115;DHT22;6623;52.120;8.660;2023-05-17T01:03:05;20.60;51.10
13115;DHT22;6623;52.120;8.660;2023-05-17T01:05:31;20.60;51.10
13115;DHT22;6623;52.120;8.660;2023-05-17T01:07:56;20.60;51.10
13115;DHT22;6623;52.120;8.660;2023-05-17T01:10:33;20.60;51.10
13115;DHT22;6623;52.120;8.660;2023-05-17T01:13:14;20.60;51.10
13115;DHT22;6623;52.120;8.660;2023-05-17T01:15:48;20.60;51.00
13115;DHT22;6623;52.120;8.660;2023-05-17T01:20:49;20.60;51.10
13115;DHT22;6623;52.120;8.660;2023-05-17T01:23:25;20.60;51.00
13115;DHT22;6623;52.120;8.660;2023-05-17T01:28:38;20.60;51.10
13115;DHT22;6623;52.120;8.660;2023-05-17T01:31:07;20.60;51.10
13115;DHT22;6623;52.120;8.660;2023-05-17T01:33:33;20.60;51.00
13115;DHT22;6623;52.120;8.660;2023-05-17T01:35:58;20.60;51.10
13115;DHT22;6623;52.120;8.660;2023-05-17T01:38:24;20.60;51.00
13115;DHT22;6623;52.120;8.660;2023-05-17T01:41:02;20.60;51.00
13115;DHT22;6623;52.120;8.660;2023-05-17T01:46:15;20.60;51.10
13115;DHT22;6623;52.120;8.660;2023-05-17T01:49:05;20.60;51.00
13115;DHT22;6623;52.120;8.660;2023-05-17T01:51:37;20.60;51.00
13115;DHT22;6623;52.120;8.660;2023-05-17T01:54:05;20.60;51.00
13115;DHT22;6623;52.120;8.660;2023-05-17T01:56:36;20.60;51.00
13115;DHT22;6623;52.120;8.660;2023-05-17T01:59:05;20.60;51.10
13115;DHT22;6623;52.120;8.660;2023-05-17T02:01:31;20.60;51.00
13115;DHT22;6623;52.120;8.660;2023-05-17T02:03:58;20.60;51.70
13115;DHT22;6623;52.120;8.660;2023-05-17T02:06:23;20.60;51.10
13115;DHT22;6623;52.120;8.660;2023-05-17T02:08:49;20.60;51.00
13115;DHT22;6623;52.120;8.660;2023-05-17T02:11:14;20.60;51.00
13115;DHT22;6623;52.120;8.660;2023-05-17T02:13:40;20.60;51.00
13115;DHT22;6623;52.120;8.660;2023-05-17T02:16:05;20.60;51.00
13115;DHT22;6623;52.120;8.660;2023-05-17T02:18:31;20.60;51.00
13115;DHT22;6623;52.120;8.660;2023-05-17T02:20:59;20.60;51.00
13115;DHT22;6623;52.120;8.660;2023-05-17T02:23:25;20.60;51.00
13115;DHT22;6623;52.120;8.660;2023-05-17T02:25:50;20.60;51.00
13115;DHT22;6623;52.120;8.660;2023-05-17T02:28:16;20.60;51.00
13115;DHT22;6623;52.120;8.660;2023-05-17T02:30:41;20.60;51.00
13115;DHT22;6623;52.120;8.660;2023-05-17T02:33:07;20.60;51.00
13115;DHT22;6623;52.120;8.660;2023-05-17T02:35:33;20.60;51.00
13115;DHT22;6623;52.120;8.660;2023-05-17T02:37:59;20.60;51.00
13115;DHT22;6623;52.120;8.660;2023-05-17T02:40:24;20.60;51.00
13115;DHT22;6623;52.120;8.660;2023-05-17T02:42:50;20.60;51.00
13115;DHT22;6623;52.120;8.660;2023-05-17T02:45:16;20.60;51.00
13115;DHT22;6623;52.120;8.660;2023-05-17T02:47:41;20.60;51.00
13115;DHT22;6623;52.120;8.660;2023-05-17T02:50:07;20.60;50.90
13115;DHT22;6623;52.120;8.660;2023-05-17T02:52:33;20.60;50.90
13115;DHT22;6623;52.120;8.660;2023-05-17T02:54:59;20.60;50.90
13115;DHT22;6623;52.120;8.660;2023-05-17T02:57:24;20.60;50.90
13115;DHT22;6623;52.120;8.660;2023-05-17T02:59:50;20.60;50.90
13115;DHT22;6623;52.120;8.660;2023-05-17T03:02:15;20.60;50.90
13115;DHT22;6623;52.120;8.660;2023-05-17T03:04:41;20.60;50.90
13115;DHT22;6623;52.120;8.660;2023-05-17T03:07:06;20.60;50.90
13115;DHT22;6623;52.120;8.660;2023-05-17T03:09:32;20.60;50.90
13115;DHT22;6623;52.120;8.660;2023-05-17T03:11:57;20.60;50.90
13115;DHT22;6623;52.120;8.660;2023-05-17T03:14:23;20.60;50.90
13115;DHT22;6623;52.120;8.660;2023-05-17T03:16:49;20.60;50.90
13115;DHT22;6623;52.120;8.660;2023-05-17T03:19:15;20.60;50.90
13115;DHT22;6623;52.120;8.660;2023-05-17T03:21:40;20.60;50.90
13115;DHT22;6623;52.120;8.660;2023-05-17T03:24:06;20.60;50.90
13115;DHT22;6623;52.120;8.660;2023-05-17T03:26:31;20.60;50.80
13115;DHT22;6623;52.120;8.660;2023-05-17T03:28:57;20.60;50.90
13115;DHT22;6623;52.120;8.660;2023-05-17T03:31:23;20.60;50.80
13115;DHT22;6623;52.120;8.660;2023-05-17T03:33:49;20.60;50.80
13115;DHT22;6623;52.120;8.660;2023-05-17T03:36:14;20.60;50.80
13115;DHT22;6623;52.120;8.660;2023-05-17T03:38:40;20.60;50.90
13115;DHT22;6623;52.120;8.660;2023-05-17T03:41:05;20.60;50.90
13115;DHT22;6623;52.120;8.660;2023-05-17T03:43:31;20.60;50.80
13115;DHT22;6623;52.120;8.660;2023-05-17T03:45:57;20.60;50.80
13115;DHT22;6623;52.120;8.660;2023-05-17T03:48:22;20.60;50.80
13115;DHT22;6623;52.120;8.660;2023-05-17T03:50:48;20.60;50.80
13115;DHT22;6623;52.120;8.660;2023-05-17T03:53:13;20.60;50.80
13115;DHT22;6623;52.120;8.660;2023-05-17T03:55:39;20.60;50.80
13115;DHT22;6623;52.120;8.660;2023-05-17T03:58:05;20.60;50.80
13115;DHT22;6623;52.120;8.660;2023-05-17T04:00:30;20.60;50.70
13115;DHT22;6623;52.120;8.660;2023-05-17T04:02:56;20.60;50.80
13115;DHT22;6623;52.120;8.660;2023-05-17T04:05:21;20.60;50.70
13115;DHT22;6623;52.120;8.660;2023-05-17T04:07:47;20.60;50.70
13115;DHT22;6623;52.120;8.660;2023-05-17T04:10:12;20.60;50.80
13115;DHT22;6623;52.120;8.660;2023-05-17T04:12:38;20.60;50.70
13115;DHT22;6623;52.120;8.660;2023-05-17T04:15:04;20.60;50.70
13115;DHT22;6623;52.120;8.660;2023-05-17T04:17:30;20.60;50.70
13115;DHT22;6623;52.120;8.660;2023-05-17T04:19:55;20.60;50.80
13115;DHT22;6623;52.120;8.660;2023-05-17T04:22:21;20.60;50.80
13115;DHT22;6623;52.120;8.660;2023-05-17T04:24:46;20.60;50.80
13115;DHT22;6623;52.120;8.660;2023-05-17T04:27:12;20.60;50.70
13115;DHT22;6623;52.120;8.660;2023-05-17T04:29:38;20.60;50.70
13115;DHT22;6623;52.120;8.660;2023-05-17T04:32:06;20.60;50.70
13115;DHT22;6623;52.120;8.660;2023-05-17T04:34:31;20.60;50.70
13115;DHT22;6623;52.120;8.660;2023-05-17T04:36:57;20.60;50.70
13115;DHT22;6623;52.120;8.660;2023-05-17T04:39:22;20.60;50.70
13115;DHT22;6623;52.120;8.660;2023-05-17T04:41:48;20.50;50.70
13115;DHT22;6623;52.120;8.660;2023-05-17T04:44:13;20.50;50.70
13115;DHT22;6623;52.120;8.660;2023-05-17T04:46:39;20.60;50.80
13115;DHT22;6623;52.120;8.660;2023-05-17T04:49:06;20.60;50.70
13115;DHT22;6623;52.120;8.660;2023-05-17T04:51:31;20.60;50.70
13115;DHT22;6623;52.120;8.660;2023-05-17T04:53:57;20.60;50.60
13115;DHT22;6623;52.120;8.660;2023-05-17T04:56:25;20.60;50.70
13115;DHT22;6623;52.120;8.660;2023-05-17T04:58:51;20.60;50.70
13115;DHT22;6623;52.120;8.660;2023-05-17T05:01:17;20.60;50.70
13115;DHT22;6623;52.120;8.660;2023-05-17T05:03:43;20.60;50.70
13115;DHT22;6623;52.120;8.660;2023-05-17T05:06:08;20.50;50.70
13115;DHT22;6623;52.120;8.660;2023-05-17T05:08:34;20.50;50.70
13115;DHT22;6623;52.120;8.660;2023-05-17T05:10:59;20.60;50.70
13115;DHT22;6623;52.120;8.660;2023-05-17T05:13:25;20.60;50.70
13115;DHT22;6623;52.120;8.660;2023-05-17T05:15:50;20.50;50.70
13115;DHT22;6623;52.120;8.660;2023-05-17T05:18:16;20.60;50.70
13115;DHT22;6623;52.120;8.660;2023-05-17T05:20:42;20.50;50.70
13115;DHT22;6623;52.120;8.660;2023-05-17T05:23:07;20.50;50.70
13115;DHT22;6623;52.120;8.660;2023-05-17T05:25:33;20.50;50.70
13115;DHT22;6623;52.120;8.660;2023-05-17T05:27:59;20.50;50.70
13115;DHT22;6623;52.120;8.660;2023-05-17T05:30:25;20.50;50.70
13115;DHT22;6623;52.120;8.660;2023-05-17T05:32:51;20.50;50.70
13115;DHT22;6623;52.120;8.660;2023-05-17T05:35:17;20.50;50.70
13115;DHT22;6623;52.120;8.660;2023-05-17T05:37:43;20.50;50.70
13115;DHT22;6623;52.120;8.660;2023-05-17T05:40:09;20.50;50.70
13115;DHT22;6623;52.120;8.660;2023-05-17T05:42:35;20.50;50.80
13115;DHT22;6623;52.120;8.660;2023-05-17T05:45:01;20.40;50.70
13115;DHT22;6623;52.120;8.660;2023-05-17T05:47:26;20.50;50.70
13115;DHT22;6623;52.120;8.660;2023-05-17T05:49:52;20.40;50.50
13115;DHT22;6623;52.120;8.660;2023-05-17T05:52:17;20.50;50.50
13115;DHT22;6623;52.120;8.660;2023-05-17T05:54:44;20.40;50.60
13115;DHT22;6623;52.120;8.660;2023-05-17T05:57:09;20.40;50.60
13115;DHT22;6623;52.120;8.660;2023-05-17T05:59:35;20.40;50.50
13115;DHT22;6623;52.120;8.660;2023-05-17T06:02:00;20.40;50.50
13115;DHT22;6623;52.120;8.660;2023-05-17T06:04:26;20.40;50.50
13115;DHT22;6623;52.120;8.660;2023-05-17T06:06:53;20.40;50.50
13115;DHT22;6623;52.120;8.660;2023-05-17T06:09:19;20.40;50.60
13115;DHT22;6623;52.120;8.660;2023-05-17T06:11:44;20.40;50.60
13115;DHT22;6623;52.120;8.660;2023-05-17T06:14:10;20.40;50.60
13115;DHT22;6623;52.120;8.660;2023-05-17T06:16:35;20.50;50.70
13115;DHT22;6623;52.120;8.660;2023-05-17T06:19:01;20.40;50.50
13115;DHT22;6623;52.120;8.660;2023-05-17T06:21:27;20.50;50.60
13115;DHT22;6623;52.120;8.660;2023-05-17T06:23:52;20.50;50.50
13115;DHT22;6623;52.120;8.660;2023-05-17T06:26:18;20.40;50.50
13115;DHT22;6623;52.120;8.660;2023-05-17T06:28:43;20.40;50.50
13115;DHT22;6623;52.120;8.660;2023-05-17T06:31:09;20.50;50.50
13115;DHT22;6623;52.120;8.660;2023-05-17T06:33:34;20.50;50.50
13115;DHT22;6623;52.120;8.660;2023-05-17T06:36:00;20.50;50.50
13115;DHT22;6623;52.120;8.660;2023-05-17T06:38:25;20.40;50.50
13115;DHT22;6623;52.120;8.660;2023-05-17T06:40:54;20.50;50.50
13115;DHT22;6623;52.120;8.660;2023-05-17T06:43:20;20.40;50.40
13115;DHT22;6623;52.120;8.660;2023-05-17T06:45:46;20.50;50.50
13115;DHT22;6623;52.120;8.660;2023-05-17T06:48:12;20.40;50.50
13115;DHT22;6623;52.120;8.660;2023-05-17T06:50:37;20.50;50.40
13115;DHT22;6623;52.120;8.660;2023-05-17T06:53:03;20.40;50.40
13115;DHT22;6623;52.120;8.660;2023-05-17T06:55:29;20.50;50.40
13115;DHT22;6623;52.120;8.660;2023-05-17T06:57:55;20.50;50.40
13115;DHT22;6623;52.120;8.660;2023-05-17T07:00:21;20.50;50.40
13115;DHT22;6623;52.120;8.660;2023-05-17T07:02:46;20.40;50.20
13115;DHT22;6623;52.120;8.660;2023-05-17T07:05:12;20.40;50.30
13115;DHT22;6623;52.120;8.660;2023-05-17T07:07:37;20.40;50.40
13115;DHT22;6623;52.120;8.660;2023-05-17T07:10:06;20.40;50.40
13115;DHT22;6623;52.120;8.660;2023-05-17T07:12:32;20.40;50.30
13115;DHT22;6623;52.120;8.660;2023-05-17T07:14:58;20.40;50.30
13115;DHT22;6623;52.120;8.660;2023-05-17T07:17:23;20.40;50.30
13115;DHT22;6623;52.120;8.660;2023-05-17T07:19:49;20.40;50.20
13115;DHT22;6623;52.120;8.660;2023-05-17T07:22:18;20.40;50.20
13115;DHT22;6623;52.120;8.660;2023-05-17T07:24:45;20.40;50.20
13115;DHT22;6623;52.120;8.660;2023-05-17T07:27:11;20.40;50.20
13115;DHT22;6623;52.120;8.660;2023-05-17T07:29:36;20.40;50.20
13115;DHT22;6623;52.120;8.660;2023-05-17T07:32:02;20.40;50.10
13115;DHT22;6623;52.120;8.660;2023-05-17T07:34:29;20.40;50.10
13115;DHT22;6623;52.120;8.660;2023-05-17T07:36:55;20.40;50.20
13115;DHT22;6623;52.120;8.660;2023-05-17T07:39:20;20.40;50.10
13115;DHT22;6623;52.120;8.660;2023-05-17T07:41:46;20.50;50.20
13115;DHT22;6623;52.120;8.660;2023-05-17T07:44:11;20.50;50.20
13115;DHT22;6623;52.120;8.660;2023-05-17T07:46:37;20.40;50.10
13115;DHT22;6623;52.120;8.660;2023-05-17T07:49:02;20.40;50.00
13115;DHT22;6623;52.120;8.660;2023-05-17T07:51:28;20.40;50.10
13115;DHT22;6623;52.120;8.660;2023-05-17T07:53:53;20.50;50.10
13115;DHT22;6623;52.120;8.660;2023-05-17T07:56:19;20.40;50.10
13115;DHT22;6623;52.120;8.660;2023-05-17T07:58:44;20.40;50.00
13115;DHT22;6623;52.120;8.660;2023-05-17T08:01:10;20.50;50.00
13115;DHT22;6623;52.120;8.660;2023-05-17T08:03:36;20.40;50.10
13115;DHT22;6623;52.120;8.660;2023-05-17T08:06:01;20.50;50.00
13115;DHT22;6623;52.120;8.660;2023-05-17T08:08:27;20.40;50.00
13115;DHT22;6623;52.120;8.660;2023-05-17T08:10:52;20.40;50.00
13115;DHT22;6623;52.120;8.660;2023-05-17T08:13:18;20.40;50.20
13115;DHT22;6623;52.120;8.660;2023-05-17T08:15:43;20.40;50.10
13115;DHT22;6623;52.120;8.660;2023-05-17T08:18:09;20.40;50.10
13115;DHT22;6623;52.120;8.660;2023-05-17T08:20:35;20.40;50.90
13115;DHT22;6623;52.120;8.660;2023-05-17T08:23:00;20.30;51.60
13115;DHT22;6623;52.120;8.660;2023-05-17T08:25:26;20.20;52.00
13115;DHT22;6623;52.120;8.660;2023-05-17T08:27:51;20.10;52.10
13115;DHT22;6623;52.120;8.660;2023-05-17T08:30:17;20.10;52.10
13115;DHT22;6623;52.120;8.660;2023-05-17T08:32:43;20.00;52.20
13115;DHT22;6623;52.120;8.660;2023-05-17T08:35:09;20.00;51.60
13115;DHT22;6623;52.120;8.660;2023-05-17T08:37:35;20.00;50.30
13115;DHT22;6623;52.120;8.660;2023-05-17T08:40:01;20.00;50.00
13115;DHT22;6623;52.120;8.660;2023-05-17T08:42:28;20.00;50.60
13115;DHT22;6623;52.120;8.660;2023-05-17T08:44:54;20.00;50.20
13115;DHT22;6623;52.120;8.660;2023-05-17T08:47:20;19.90;48.50
13115;DHT22;6623;52.120;8.660;2023-05-17T08:49:55;19.90;48.60
13115;DHT22;6623;52.120;8.660;2023-05-17T08:52:31;19.90;48.60
13115;DHT22;6623;52.120;8.660;2023-05-17T08:54:57;19.80;47.60
13115;DHT22;6623;52.120;8.660;2023-05-17T08:57:27;19.80;45.80
13115;DHT22;6623;52.120;8.660;2023-05-17T08:59:53;19.80;45.20
13115;DHT22;6623;52.120;8.660;2023-05-17T09:02:19;19.80;45.50
13115;DHT22;6623;52.120;8.660;2023-05-17T09:04:46;19.80;47.20
13115;DHT22;6623;52.120;8.660;2023-05-17T09:07:14;19.80;47.80
13115;DHT22;6623;52.120;8.660;2023-05-17T09:09:40;19.80;48.20
13115;DHT22;6623;52.120;8.660;2023-05-17T09:12:06;19.90;51.20
13115;DHT22;6623;52.120;8.660;2023-05-17T09:14:33;19.90;50.30
13115;DHT22;6623;52.120;8.660;2023-05-17T09:17:01;20.00;50.40
13115;DHT22;6623;52.120;8.660;2023-05-17T09:19:27;20.00;50.20
13115;DHT22;6623;52.120;8.660;2023-05-17T09:21:54;20.00;50.10
13115;DHT22;6623;52.120;8.660;2023-05-17T09:24:27;20.00;50.00
13115;DHT22;6623;52.120;8.660;2023-05-17T09:27:02;20.00;50.00
13115;DHT22;6623;52.120;8.660;2023-05-17T09:29:32;20.10;49.90
13115;DHT22;6623;52.120;8.660;2023-05-17T09:32:18;20.10;49.80
13115;DHT22;6623;52.120;8.660;2023-05-17T09:34:45;20.10;49.80
13115;DHT22;6623;52.120;8.660;2023-05-17T09:37:12;20.10;49.80
13115;DHT22;6623;52.120;8.660;2023-05-17T09:39:39;20.10;49.80
13115;DHT22;6623;52.120;8.660;2023-05-17T09:42:04;20.10;49.70
13115;DHT22;6623;52.120;8.660;2023-05-17T09:44:30;20.10;49.70
13115;DHT22;6623;52.120;8.660;2023-05-17T09:46:56;20.10;49.60
13115;DHT22;6623;52.120;8.660;2023-05-17T09:49:25;20.10;49.60
13115;DHT22;6623;52.120;8.660;2023-05-17T09:51:51;20.10;49.60
13115;DHT22;6623;52.120;8.660;2023-05-17T09:54:17;20.10;49.60
13115;DHT22;6623;52.120;8.660;2023-05-17T09:56:43;20.20;49.70
13115;DHT22;6623;52.120;8.660;2023-05-17T09:59:13;20.20;49.70
13115;DHT22;6623;52.120;8.660;2023-05-17T10:01:40;20.20;49.70
13115;DHT22;6623;52.120;8.660;2023-05-17T10:04:08;20.20;49.60
13115;DHT22;6623;52.120;8.660;2023-05-17T10:06:37;20.20;49.60
13115;DHT22;6623;52.120;8.660;2023-05-17T10:09:04;20.20;49.70
13115;DHT22;6623;52.120;8.660;2023-05-17T10:11:31;20.20;49.60
13115;DHT22;6623;52.120;8.660;2023-05-17T10:16:34;20.20;49.60
13115;DHT22;6623;52.120;8.660;2023-05-17T10:19:02;20.20;49.60
13115;DHT22;6623;52.120;8.660;2023-05-17T10:21:30;20.20;49.70
13115;DHT22;6623;52.120;8.660;2023-05-17T10:23:59;20.20;49.60
13115;DHT22;6623;52.120;8.660;2023-05-17T10:26:26;20.20;50.30
13115;DHT22;6623;52.120;8.660;2023-05-17T10:28:56;20.20;49.60
13115;DHT22;6623;52.120;8.660;2023-05-17T10:31:28;20.20;49.70
13115;DHT22;6623;52.120;8.660;2023-05-17T10:33:54;20.20;49.70
13115;DHT22;6623;52.120;8.660;2023-05-17T10:36:20;20.20;49.60
13115;DHT22;6623;52.120;8.660;2023-05-17T10:38:47;20.20;49.60
13115;DHT22;6623;52.120;8.660;2023-05-17T10:41:14;20.20;49.60
13115;DHT22;6623;52.120;8.660;2023-05-17T10:43:42;20.20;49.60
13115;DHT22;6623;52.120;8.660;2023-05-17T10:46:15;20.20;49.60
13115;DHT22;6623;52.120;8.660;2023-05-17T10:48:42;20.20;49.60
13115;DHT22;6623;52.120;8.660;2023-05-17T10:51:10;20.20;49.60
13115;DHT22;6623;52.120;8.660;2023-05-17T10:56:39;20.20;49.60
13115;DHT22;6623;52.120;8.660;2023-05-17T10:59:26;20.20;49.60
13115;DHT22;6623;52.120;8.660;2023-05-17T11:04:36;20.20;49.60
13115;DHT22;6623;52.120;8.660;2023-05-17T11:09:43;20.20;49.70
13115;DHT22;6623;52.120;8.660;2023-05-17T11:12:11;20.20;49.70
13115;DHT22;6623;52.120;8.660;2023-05-17T11:14:47;20.20;49.60
13115;DHT22;6623;52.120;8.660;2023-05-17T11:17:18;20.20;49.60
13115;DHT22;6623;52.120;8.660;2023-05-17T11:22:17;20.20;49.60
13115;DHT22;6623;52.120;8.660;2023-05-17T11:24:43;20.20;49.60
13115;DHT22;6623;52.120;8.660;2023-05-17T11:27:12;20.20;49.60
13115;DHT22;6623;52.120;8.660;2023-05-17T11:29:39;20.20;49.60
13115;DHT22;6623;52.120;8.660;2023-05-17T11:32:09;20.20;49.50
13115;DHT22;6623;52.120;8.660;2023-05-17T11:34:34;20.20;49.50
13115;DHT22;6623;52.120;8.660;2023-05-17T11:37:00;20.20;49.50
13115;DHT22;6623;52.120;8.660;2023-05-17T11:39:28;20.20;49.50
13115;DHT22;6623;52.120;8.660;2023-05-17T11:41:55;20.20;49.50
13115;DHT22;6623;52.120;8.660;2023-05-17T11:44:29;20.20;49.60
13115;DHT22;6623;52.120;8.660;2023-05-17T11:47:07;20.20;49.50
13115;DHT22;6623;52.120;8.660;2023-05-17T11:49:36;20.20;49.50
13115;DHT22;6623;52.120;8.660;2023-05-17T11:52:06;20.20;49.60
13115;DHT22;6623;52.120;8.660;2023-05-17T11:54:32;20.20;49.60
13115;DHT22;6623;52.120;8.660;2023-05-17T11:56:58;20.20;49.60
13115;DHT22;6623;52.120;8.660;2023-05-17T11:59:24;20.20;49.50
13115;DHT22;6623;52.120;8.660;2023-05-17T12:01:50;20.20;49.50
13115;DHT22;6623;52.120;8.660;2023-05-17T12:04:23;20.20;49.50
13115;DHT22;6623;52.120;8.660;2023-05-17T12:06:50;20.20;49.50
13115;DHT22;6623;52.120;8.660;2023-05-17T12:09:16;20.20;49.50
13115;DHT22;6623;52.120;8.660;2023-05-17T12:11:42;20.20;49.50
13115;DHT22;6623;52.120;8.660;2023-05-17T12:14:09;20.20;49.50
13115;DHT22;6623;52.120;8.660;2023-05-17T12:16:39;20.20;50.10
13115;DHT22;6623;52.120;8.660;2023-05-17T12:19:16;20.20;49.50
13115;DHT22;6623;52.120;8.660;2023-05-17T12:21:43;20.20;49.50
13115;DHT22;6623;52.120;8.660;2023-05-17T12:24:08;20.20;49.40
13115;DHT22;6623;52.120;8.660;2023-05-17T12:26:34;20.20;49.50
13115;DHT22;6623;52.120;8.660;2023-05-17T12:29:06;20.20;49.50
13115;DHT22;6623;52.120;8.660;2023-05-17T12:31:35;20.20;49.40
13115;DHT22;6623;52.120;8.660;2023-05-17T12:34:01;20.20;49.40
13115;DHT22;6623;52.120;8.660;2023-05-17T12:36:30;20.20;49.40
13115;DHT22;6623;52.120;8.660;2023-05-17T12:38:58;20.20;49.40
13115;DHT22;6623;52.120;8.660;2023-05-17T12:41:24;20.20;49.40
13115;DHT22;6623;52.120;8.660;2023-05-17T12:43:53;20.20;49.50
13115;DHT22;6623;52.120;8.660;2023-05-17T12:46:21;20.20;49.40
13115;DHT22;6623;52.120;8.660;2023-05-17T12:48:52;20.20;49.40
13115;DHT22;6623;52.120;8.660;2023-05-17T12:51:19;20.20;49.40
13115;DHT22;6623;52.120;8.660;2023-05-17T12:53:53;20.20;49.40
13115;DHT22;6623;52.120;8.660;2023-05-17T12:56:28;20.20;49.40
13115;DHT22;6623;52.120;8.660;2023-05-17T12:59:05;20.20;49.40
13115;DHT22;6623;52.120;8.660;2023-05-17T13:04:01;20.20;49.40
13115;DHT22;6623;52.120;8.660;2023-05-17T13:06:26;20.20;49.40
13115;DHT22;6623;52.120;8.660;2023-05-17T13:08:59;20.20;49.40
13115;DHT22;6623;52.120;8.660;2023-05-17T13:11:24;20.20;49.40
13115;DHT22;6623;52.120;8.660;2023-05-17T13:13:50;20.20;49.40
13115;DHT22;6623;52.120;8.660;2023-05-17T13:16:16;20.20;49.40
13115;DHT22;6623;52.120;8.660;2023-05-17T13:18:49;20.20;49.40
13115;DHT22;6623;52.120;8.660;2023-05-17T13:21:16;20.20;49.40
13115;DHT22;6623;52.120;8.660;2023-05-17T13:23:43;20.20;49.40
13115;DHT22;6623;52.120;8.660;2023-05-17T13:26:09;20.20;49.30
13115;DHT22;6623;52.120;8.660;2023-05-17T13:28:36;20.20;49.40
13115;DHT22;6623;52.120;8.660;2023-05-17T13:31:02;20.20;49.30
13115;DHT22;6623;52.120;8.660;2023-05-17T13:33:27;20.20;49.20
13115;DHT22;6623;52.120;8.660;2023-05-17T13:35:53;20.20;49.20
13115;DHT22;6623;52.120;8.660;2023-05-17T13:38:18;20.20;49.20
13115;DHT22;6623;52.120;8.660;2023-05-17T13:40:44;20.20;49.20
13115;DHT22;6623;52.120;8.660;2023-05-17T13:43:09;20.20;49.20
13115;DHT22;6623;52.120;8.660;2023-05-17T13:45:35;20.20;49.20
13115;DHT22;6623;52.120;8.660;2023-05-17T13:48:01;20.20;49.40
13115;DHT22;6623;52.120;8.660;2023-05-17T13:50:26;20.20;49.20
13115;DHT22;6623;52.120;8.660;2023-05-17T13:52:52;20.20;49.20
13115;DHT22;6623;52.120;8.660;2023-05-17T13:55:18;20.20;49.20
13115;DHT22;6623;52.120;8.660;2023-05-17T13:57:43;20.20;49.20
13115;DHT22;6623;52.120;8.660;2023-05-17T14:00:10;20.20;49.20
13115;DHT22;6623;52.120;8.660;2023-05-17T14:02:35;20.20;49.20
13115;DHT22;6623;52.120;8.660;2023-05-17T14:05:01;20.20;49.20
13115;DHT22;6623;52.120;8.660;2023-05-17T14:07:27;20.20;49.20
13115;DHT22;6623;52.120;8.660;2023-05-17T14:09:52;20.20;49.20
13115;DHT22;6623;52.120;8.660;2023-05-17T14:12:18;20.20;49.20
13115;DHT22;6623;52.120;8.660;2023-05-17T14:14:44;20.20;49.00
13115;DHT22;6623;52.120;8.660;2023-05-17T14:17:09;20.20;49.20
13115;DHT22;6623;52.120;8.660;2023-05-17T14:19:35;20.20;49.10
13115;DHT22;6623;52.120;8.660;2023-05-17T14:22:00;20.20;49.20
13115;DHT22;6623;52.120;8.660;2023-05-17T14:24:26;20.20;49.10
13115;DHT22;6623;52.120;8.660;2023-05-17T14:26:52;20.20;49.10
13115;DHT22;6623;52.120;8.660;2023-05-17T14:29:17;20.20;49.10
13115;DHT22;6623;52.120;8.660;2023-05-17T14:31:43;20.20;49.10
13115;DHT22;6623;52.120;8.660;2023-05-17T14:34:08;20.20;49.10
13115;DHT22;6623;52.120;8.660;2023-05-17T14:36:34;20.20;49.10
13115;DHT22;6623;52.120;8.660;2023-05-17T14:39:01;20.20;49.10
13115;DHT22;6623;52.120;8.660;2023-05-17T14:41:27;20.20;49.10
13115;DHT22;6623;52.120;8.660;2023-05-17T14:43:53;20.20;49.00
13115;DHT22;6623;52.120;8.660;2023-05-17T14:46:18;20.20;49.10
13115;DHT22;6623;52.120;8.660;2023-05-17T14:48:44;20.20;49.00
13115;DHT22;6623;52.120;8.660;2023-05-17T14:51:09;20.20;49.00
13115;DHT22;6623;52.120;8.660;2023-05-17T14:53:35;20.20;49.00
13115;DHT22;6623;52.120;8.660;2023-05-17T14:56:01;20.20;49.00
13115;DHT22;6623;52.120;8.660;2023-05-17T14:58:27;20.20;49.00
13115;DHT22;6623;52.120;8.660;2023-05-17T15:00:53;20.20;49.00
13115;DHT22;6623;52.120;8.660;2023-05-17T15:03:23;20.20;49.00
13115;DHT22;6623;52.120;8.660;2023-05-17T15:05:55;20.20;49.00
13115;DHT22;6623;52.120;8.660;2023-05-17T15:08:21;20.20;49.00
13115;DHT22;6623;52.120;8.660;2023-05-17T15:10:48;20.20;49.00
13115;DHT22;6623;52.120;8.660;2023-05-17T15:13:14;20.20;49.00
13115;DHT22;6623;52.120;8.660;2023-05-17T15:15:39;20.20;49.00
13115;DHT22;6623;52.120;8.660;2023-05-17T15:18:05;20.20;49.00
13115;DHT22;6623;52.120;8.660;2023-05-17T15:20:31;20.20;49.00
13115;DHT22;6623;52.120;8.660;2023-05-17T15:22:57;20.20;49.00
13115;DHT22;6623;52.120;8.660;2023-05-17T15:25:22;20.20;49.00
13115;DHT22;6623;52.120;8.660;2023-05-17T15:27:48;20.20;49.00
13115;DHT22;6623;52.120;8.660;2023-05-17T15:30:14;20.20;49.00
13115;DHT22;6623;52.120;8.660;2023-05-17T15:32:39;20.20;49.00
13115;DHT22;6623;52.120;8.660;2023-05-17T15:35:06;20.20;49.00
13115;DHT22;6623;52.120;8.660;2023-05-17T15:37:31;20.20;49.00
13115;DHT22;6623;52.120;8.660;2023-05-17T15:40:06;20.20;48.90
13115;DHT22;6623;52.120;8.660;2023-05-17T15:42:32;20.20;48.90
13115;DHT22;6623;52.120;8.660;2023-05-17T15:44:58;20.20;49.00
13115;DHT22;6623;52.120;8.660;2023-05-17T15:47:23;20.20;49.00
13115;DHT22;6623;52.120;8.660;2023-05-17T15:49:49;20.20;49.00
13115;DHT22;6623;52.120;8.660;2023-05-17T15:52:14;20.20;49.00
13115;DHT22;6623;52.120;8.660;2023-05-17T15:54:40;20.20;48.90
13115;DHT22;6623;52.120;8.660;2023-05-17T15:57:06;20.20;48.90
13115;DHT22;6623;52.120;8.660;2023-05-17T15:59:32;20.20;48.90
13115;DHT22;6623;52.120;8.660;2023-05-17T16:01:58;20.20;48.90
13115;DHT22;6623;52.120;8.660;2023-05-17T16:04:23;20.20;48.90
13115;DHT22;6623;52.120;8.660;2023-05-17T16:06:49;20.20;48.90